Amunt
Inicio > meteoXarxa
Fes-te'n soci

METEOXARXA

Vinaròs
Ubicació
Comarca el Baix Maestrat
Altitud (msnm) 22
Posició geogràfica 40° 28' 12.00" N, 00° 28' 5.16" E
Model Davis Vantage Pro 2
Presa de dades
Font de les dades Meteo Vinaròs
Estadístiques. Resum
Data Temperatura (ºC) Humitat (%) Pressió (hPa) Vent (km/h) Precipit. (mm)
Mínima Mitjana Màxima Mínima Mitjana Màxima Mínima Mitjana Màxima Predom. Mitjana Ràfega màxima Total Dies de pluja
Mínima Mitjana Màxima Mínima Mitjana Màxima
Últimes dades diàries
21-01-2017 7,9     10,3     11,9 N 5,6 38,6 12,7  
20-01-2017 9,1     10,0     11,1 ESE 6,0 33,8 41,7  
19-01-2017 3,2     6,7     10,4 N 5,0 25,7 12,7  
18-01-2017 1,9     4,9     10,6 W 1,1 22,5 0,0  
17-01-2017 3,7     9,3     12,7 N 1,8 29,0 0,0  
16-01-2017 10,7     13,7     19,0 W 2,4 25,7 0,0  
15-01-2017 7,3     10,8     15,7 W 2,1 24,1 0,0  
14-01-2017 7,2     9,9     13,6 W 2,9 33,8 0,0  
13-01-2017 8,9     13,4     16,4 W 3,4 33,8 0,0  
12-01-2017 6,1     10,9     15,7 SSW 1,8 25,7 0,0  
11-01-2017 7,4     11,6     14,7 SW 2,6 24,1 0,0  
10-01-2017 6,1     12,4     17,6 NE 1,9 33,8 0,0  
09-01-2017 5,2     9,8     14,8 WSW 1,4 17,7 0,0  
08-01-2017 2,7     7,9     14,3 SSE 0,5 12,9 0,0  
07-01-2017 3,1     7,6     14,1 WNW 11,3 0,0  
06-01-2017 3,3     7,9     13,7 W 0,2 14,5 0,0  
05-01-2017 5,1     9,6     16,1 E 0,3 16,1 0,0  
04-01-2017 6,7     9,4     13,4 SSE 9,7 0,0  
03-01-2017 2,9     7,9     13,2 WNW 0,2 14,5 0,0  
02-01-2017 3,7     6,8     13,1 WNW 0,2 11,3 0,0  
01-01-2017 3,5     6,6     11,7 WNW 14,5 0,0  
31-12-2016 4,3     7,9     14,7 W 0,5 12,9 0,0  
30-12-2016 4,1     7,4     14,6 W 0,6 20,9 0,0  
29-12-2016 3,2     7,3     13,9 SW 0,5 12,9 0,0  
28-12-2016 4,6     9,0     17,0 W 0,2 11,3 0,0  
27-12-2016 6,9     9,9     15,3 NW 12,9 0,0  
26-12-2016 6,7     10,6     18,9 W 9,7 0,3  
25-12-2016 6,1     10,4     16,3 ESE 8,0 0,3  
24-12-2016 6,7     10,8     16,2 ESE 8,0 0,0  
23-12-2016 6,8     11,1     16,7 SE 0,2 11,3 0,0  
22-12-2016 9,3     12,8     19,2 WNW 0,3 14,5 0,0  
21-12-2016 9,0     12,3     18,0 N 0,6 19,3 0,0  
Dades del mes en curs (actualitzades fins l'últim dia disponible)
01/2017 1,9 5,5 10,7 9,4 10,4 14,0 19,0   2,2 38,6 67,1  
Últimes dades mensuals
12/2016 3,2 7,8 15,1 11,2 11,7 16,2 20,1 0,9 29,0 70,9 11
11/2016 6,7 10,6 14,3 14,5 12,6 18,9 26,0 1,7 54,7 83,2 10
10/2016 11,6 16,0 19,8 19,6 18,4 23,4 27,0 1,1 30,6 43,8 10
09/2016 14,4 19,0 23,4 23,2 24,6 27,1 30,3 2,6 46,7 44,8 5
08/2016 17,9 21,1 24,2 25,1 24,4 28,2 30,3 3,7 37,0 14,0 4
07/2016 16,8 20,9 23,8 25,0 24,8 28,1 31,7 4,4 43,5 0,0 0
06/2016 14,6 18,3 21,6 22,1 21,2 25,2 31,2 4,2 43,5 7,6 6
05/2016 10,2 14,1 18,2 17,7 16,7 21,2 27,3 3,8 41,8 25,0 8
04/2016 8,2 11,5 14,4 15,2 14,7 18,7 23,8 2,9 54,7 37,6 7
03/2016 5,5 9,0 12,4 12,9 12,1 17,4 24,6 2,5 46,7 59,4 5
02/2016 3,3 8,3 15,0 12,4 11,7 17,6 27,1 2,5 64,4 12,1 8
01/2016 4,3 8,3 11,8 12,3 13,1 16,6 23,7 2,3 54,7 4,8 3
12/2015 6,0 8,7 12,7 12,3 15,4 17,1 18,9 0,6 22,5 0,8 2
Dades de l'any en curs (actualitzades fins l'últim dia disponible)
2017 1,9 5,5 10,7 9,4 10,4 14,0 19,0   2,2 38,6 67,1  
Últimes dades anuals
2009 -0,6 13,5 24,6 17,4 6,2 21,4 34,0 3,1 77,2 323,0 75
2010 0,7 12,7 24,9 16,5 5,4 20,4 35,3 3,3 62,8 403,8 93
2011 -0,3 13,8 24,6 17,6 8,1 21,5 31,6 2,8 77,2 525,1 70
2012 459,7
2013 1,5 13,4 17,8 17,2 18,7 21,2 31,2 3,4 62,8 409,8 69
2014 1,6 14,1 25,4 17,8 10,9 21,6 34,0 3,5 69,2 367,9 69
2015 2,2 13,7 20,3 17,6 18,9 21,6 31,8 2,9 57,9 622,6 73